createdAt,value
2022-08-27T00:00:10.185Z,959.45
2022-08-27T00:01:09.035Z,959.41
2022-08-27T00:02:09.107Z,959.42
2022-08-27T00:03:10.301Z,959.41
2022-08-27T00:06:10.219Z,959.37
2022-08-27T00:07:08.933Z,959.38
2022-08-27T00:10:08.848Z,959.37
2022-08-27T00:11:08.918Z,959.34
2022-08-27T00:12:09.151Z,959.35
2022-08-27T00:14:09.054Z,959.31
2022-08-27T00:15:08.985Z,959.33
2022-08-27T00:17:09.055Z,959.25
2022-08-27T00:20:09.023Z,959.24
2022-08-27T00:21:08.992Z,959.25
2022-08-27T00:22:08.975Z,959.26
2022-08-27T00:23:08.931Z,959.28
2022-08-27T00:24:08.895Z,959.25
2022-08-27T00:27:09.085Z,959.22
2022-08-27T00:30:09.019Z,959.16
2022-08-27T00:32:10.626Z,959.15
2022-08-27T00:35:09.086Z,959.19
2022-08-27T00:36:09.022Z,959.2
2022-08-27T00:37:08.982Z,959.16
2022-08-27T00:38:10.316Z,959.14
2022-08-27T00:39:08.927Z,959.12
2022-08-27T00:40:09.140Z,959.13
2022-08-27T00:41:09.037Z,959.12
2022-08-27T00:42:09.016Z,959.11
2022-08-27T00:43:09.945Z,959.1
2022-08-27T00:44:09.242Z,959.09
2022-08-27T00:45:09.027Z,959.06
2022-08-27T00:46:08.975Z,959.05
2022-08-27T00:53:09.167Z,959.02
2022-08-27T00:54:09.278Z,958.98
2022-08-27T00:55:09.001Z,958.96
2022-08-27T00:58:09.212Z,958.97
2022-08-27T00:59:09.170Z,958.95
2022-08-27T01:00:09.076Z,958.92
2022-08-27T01:02:09.031Z,958.88
2022-08-27T01:05:09.103Z,958.8
2022-08-27T01:07:08.983Z,958.8
2022-08-27T01:10:09.276Z,958.76
2022-08-27T01:11:09.114Z,958.78
2022-08-27T01:12:08.994Z,958.77
2022-08-27T01:13:09.296Z,958.78
2022-08-27T01:14:09.117Z,958.77
2022-08-27T01:16:10.178Z,958.73
2022-08-27T01:19:10.082Z,958.73
2022-08-27T01:21:09.190Z,958.71
2022-08-27T01:22:09.170Z,958.75
2022-08-27T01:24:09.122Z,958.75
2022-08-27T01:26:09.034Z,958.78
2022-08-27T01:28:09.356Z,958.77
2022-08-27T01:30:09.105Z,958.78
2022-08-27T01:31:09.202Z,958.75
2022-08-27T01:32:09.039Z,958.74
2022-08-27T01:36:09.888Z,958.75
2022-08-27T01:39:09.340Z,958.78
2022-08-27T01:41:09.203Z,958.81
2022-08-27T01:42:09.223Z,958.78
2022-08-27T01:44:09.157Z,958.76
2022-08-27T01:45:09.340Z,958.78
2022-08-27T01:46:09.087Z,958.82
2022-08-27T01:48:09.302Z,958.8
2022-08-27T01:49:09.197Z,958.81
2022-08-27T01:52:09.198Z,958.83
2022-08-27T01:53:09.115Z,958.81
2022-08-27T01:55:09.211Z,958.83
2022-08-27T02:00:09.269Z,958.82
2022-08-27T02:01:09.379Z,958.83
2022-08-27T02:02:09.227Z,958.84
2022-08-27T02:03:09.123Z,958.83
2022-08-27T02:04:09.377Z,958.8
2022-08-27T02:05:09.291Z,958.82
2022-08-27T02:06:09.256Z,958.81
2022-08-27T02:07:09.712Z,958.78
2022-08-27T02:08:09.255Z,958.77
2022-08-27T02:10:09.230Z,958.73
2022-08-27T02:12:09.272Z,958.71
2022-08-27T02:13:09.148Z,958.74
2022-08-27T02:14:12.819Z,958.7
2022-08-27T02:15:09.448Z,958.68
2022-08-27T02:16:09.932Z,958.66
2022-08-27T02:21:09.279Z,958.61
2022-08-27T02:24:09.380Z,958.65
2022-08-27T02:26:09.326Z,958.6
2022-08-27T02:27:09.450Z,958.58
2022-08-27T02:28:09.461Z,958.63
2022-08-27T02:29:10.932Z,958.62
2022-08-27T02:30:12.189Z,958.61
2022-08-27T02:34:09.746Z,958.62
2022-08-27T02:35:09.234Z,958.61
2022-08-27T02:36:10.164Z,958.6
2022-08-27T02:39:09.445Z,958.58
2022-08-27T02:40:09.438Z,958.57
2022-08-27T02:41:09.235Z,958.55
2022-08-27T02:42:09.308Z,958.54
2022-08-27T02:44:10.221Z,958.57
2022-08-27T02:45:09.458Z,958.59
2022-08-27T02:46:09.317Z,958.56
2022-08-27T02:47:09.467Z,958.59
2022-08-27T02:48:09.459Z,958.57
2022-08-27T02:49:09.387Z,958.61
2022-08-27T02:52:11.694Z,958.58
2022-08-27T02:54:09.647Z,958.56
2022-08-27T02:56:09.486Z,958.55
2022-08-27T02:58:10.713Z,958.51
2022-08-27T02:59:09.260Z,958.54
2022-08-27T03:00:09.332Z,958.52
2022-08-27T03:01:11.330Z,958.51
2022-08-27T03:02:09.492Z,958.48
2022-08-27T03:03:09.439Z,958.47
2022-08-27T03:05:09.985Z,958.48
2022-08-27T03:06:09.341Z,958.46
2022-08-27T03:09:09.378Z,958.47
2022-08-27T03:10:09.415Z,958.5
2022-08-27T03:12:09.461Z,958.53
2022-08-27T03:13:09.412Z,958.48
2022-08-27T03:16:09.337Z,958.47
2022-08-27T03:18:09.630Z,958.46
2022-08-27T03:19:09.768Z,958.39
2022-08-27T03:21:09.602Z,958.45
2022-08-27T03:22:09.437Z,958.42
2022-08-27T03:23:09.510Z,958.39
2022-08-27T03:25:09.552Z,958.42
2022-08-27T03:28:20.548Z,958.38
2022-08-27T03:30:09.433Z,958.37
2022-08-27T03:33:09.347Z,958.4
2022-08-27T03:34:09.756Z,958.37
2022-08-27T03:35:10.294Z,958.35
2022-08-27T03:36:09.353Z,958.38
2022-08-27T03:38:09.606Z,958.37
2022-08-27T03:39:09.484Z,958.38
2022-08-27T03:40:09.408Z,958.37
2022-08-27T03:41:09.580Z,958.36
2022-08-27T03:42:09.389Z,958.35
2022-08-27T03:46:09.491Z,958.33
2022-08-27T03:47:09.645Z,958.31
2022-08-27T03:48:10.129Z,958.28
2022-08-27T03:49:09.390Z,958.25
2022-08-27T03:50:09.696Z,958.29
2022-08-27T03:52:09.471Z,958.27
2022-08-27T03:53:09.538Z,958.32
2022-08-27T03:55:09.468Z,958.35
2022-08-27T03:59:09.524Z,958.28
2022-08-27T04:00:10.230Z,958.29
2022-08-27T04:01:09.480Z,958.27
2022-08-27T04:03:09.517Z,958.24
2022-08-27T04:05:09.432Z,958.21
2022-08-27T04:06:10.252Z,958.22
2022-08-27T04:07:09.488Z,958.2
2022-08-27T04:09:09.692Z,958.19
2022-08-27T04:11:09.558Z,958.14
2022-08-27T04:12:09.677Z,958.15
2022-08-27T04:13:10.537Z,958.13
2022-08-27T04:15:09.526Z,958.12
2022-08-27T04:16:09.527Z,958.1
2022-08-27T04:17:09.709Z,958.08
2022-08-27T04:18:09.624Z,958.09
2022-08-27T04:19:09.760Z,958.08
2022-08-27T04:21:09.663Z,958.07
2022-08-27T04:23:09.486Z,958.04
2022-08-27T04:29:09.669Z,958.07
2022-08-27T04:31:12.899Z,958.12
2022-08-27T04:32:09.728Z,958.09
2022-08-27T04:33:09.557Z,958.11
2022-08-27T04:34:09.559Z,958.08
2022-08-27T04:35:09.596Z,958.11
2022-08-27T04:36:09.562Z,958.09
2022-08-27T04:38:09.784Z,958.11
2022-08-27T04:40:09.709Z,958.14
2022-08-27T04:41:09.603Z,958.15
2022-08-27T04:42:10.012Z,958.13
2022-08-27T04:43:09.809Z,958.19
2022-08-27T04:44:09.616Z,958.17
2022-08-27T04:45:09.700Z,958.15
2022-08-27T04:46:09.713Z,958.14
2022-08-27T04:47:09.612Z,958.2
2022-08-27T04:48:10.929Z,958.21
2022-08-27T04:50:10.211Z,958.19
2022-08-27T04:51:09.675Z,958.22
2022-08-27T04:53:09.702Z,958.25
2022-08-27T04:55:09.675Z,958.24
2022-08-27T04:56:14.277Z,958.22
2022-08-27T04:58:09.965Z,958.21
2022-08-27T05:00:09.822Z,958.23
2022-08-27T05:02:09.639Z,958.22
2022-08-27T05:03:09.703Z,958.24
2022-08-27T05:04:09.843Z,958.25
2022-08-27T05:05:14.248Z,958.26
2022-08-27T05:07:09.807Z,958.23
2022-08-27T05:08:09.786Z,958.25
2022-08-27T05:10:09.583Z,958.26
2022-08-27T05:12:09.813Z,958.25
2022-08-27T05:14:09.897Z,958.32
2022-08-27T05:16:09.807Z,958.26
2022-08-27T05:17:09.607Z,958.34
2022-08-27T05:18:09.706Z,958.3
2022-08-27T05:19:09.699Z,958.29
2022-08-27T05:20:09.661Z,958.31
2022-08-27T05:21:10.086Z,958.29
2022-08-27T05:23:11.021Z,958.29
2022-08-27T05:25:09.697Z,958.25
2022-08-27T05:28:09.811Z,958.3
2022-08-27T05:29:10.963Z,958.29
2022-08-27T05:31:09.755Z,958.3
2022-08-27T05:32:10.985Z,958.26
2022-08-27T05:33:09.745Z,958.27
2022-08-27T05:34:10.381Z,958.24
2022-08-27T05:35:13.975Z,958.26
2022-08-27T05:36:09.817Z,958.25
2022-08-27T05:37:09.659Z,958.24
2022-08-27T05:38:11.166Z,958.29
2022-08-27T05:39:09.663Z,958.26
2022-08-27T05:40:09.787Z,958.27
2022-08-27T05:42:09.659Z,958.3
2022-08-27T05:43:09.846Z,958.31
2022-08-27T05:48:09.904Z,958.25
2022-08-27T05:49:09.674Z,958.27
2022-08-27T05:52:09.817Z,958.25
2022-08-27T05:53:09.701Z,958.28
2022-08-27T05:55:09.867Z,958.3
2022-08-27T05:56:09.707Z,958.29
2022-08-27T05:57:09.714Z,958.3
2022-08-27T05:58:09.881Z,958.31
2022-08-27T05:59:09.963Z,958.29
2022-08-27T06:02:09.818Z,958.31
2022-08-27T06:03:09.786Z,958.28
2022-08-27T06:05:09.746Z,958.29
2022-08-27T06:07:09.902Z,958.3
2022-08-27T06:08:09.997Z,958.31
2022-08-27T06:10:09.847Z,958.33
2022-08-27T06:11:09.739Z,958.34
2022-08-27T06:13:09.853Z,958.35
2022-08-27T06:14:09.829Z,958.34
2022-08-27T06:16:09.914Z,958.33
2022-08-27T06:18:10.158Z,958.27
2022-08-27T06:19:09.879Z,958.34
2022-08-27T06:20:09.842Z,958.3
2022-08-27T06:21:09.764Z,958.35
2022-08-27T06:22:10.931Z,958.41
2022-08-27T06:23:10.168Z,958.35
2022-08-27T06:24:09.762Z,958.42
2022-08-27T06:25:09.989Z,958.39
2022-08-27T06:26:09.721Z,958.4
2022-08-27T06:27:09.779Z,958.39
2022-08-27T06:30:09.920Z,958.41
2022-08-27T06:31:10.420Z,958.4
2022-08-27T06:32:09.801Z,958.41
2022-08-27T06:33:10.425Z,958.42
2022-08-27T06:34:09.901Z,958.4
2022-08-27T06:35:09.854Z,958.42
2022-08-27T06:38:10.125Z,958.41
2022-08-27T06:40:09.953Z,958.43
2022-08-27T06:41:16.511Z,958.45
2022-08-27T06:43:10.051Z,958.45
2022-08-27T06:44:09.870Z,958.49
2022-08-27T06:45:09.817Z,958.44
2022-08-27T06:46:09.957Z,958.47
2022-08-27T06:48:10.087Z,958.47
2022-08-27T06:51:10.048Z,958.49
2022-08-27T06:54:09.956Z,958.51
2022-08-27T06:57:10.247Z,958.51
2022-08-27T07:00:10.198Z,958.53
2022-08-27T07:02:09.963Z,958.55
2022-08-27T07:04:09.870Z,958.53
2022-08-27T07:05:10.005Z,958.55
2022-08-27T07:07:09.942Z,958.52
2022-08-27T07:08:10.224Z,958.53
2022-08-27T07:09:09.973Z,958.57
2022-08-27T07:10:09.944Z,958.54
2022-08-27T07:11:09.995Z,958.55
2022-08-27T07:12:09.887Z,958.58
2022-08-27T07:14:10.025Z,958.53
2022-08-27T07:15:09.892Z,958.58
2022-08-27T07:18:10.156Z,958.57
2022-08-27T07:19:10.639Z,958.6
2022-08-27T07:20:10.041Z,958.63
2022-08-27T07:22:10.121Z,958.64
2022-08-27T07:23:11.119Z,958.65
2022-08-27T07:24:09.919Z,958.64
2022-08-27T07:25:10.077Z,958.65
2022-08-27T07:26:10.032Z,958.66
2022-08-27T07:27:09.932Z,958.69
2022-08-27T07:29:10.058Z,958.69
2022-08-27T07:30:09.945Z,958.66
2022-08-27T07:32:10.041Z,958.69
2022-08-27T07:33:10.009Z,958.67
2022-08-27T07:34:10.079Z,958.68
2022-08-27T07:35:09.951Z,958.71
2022-08-27T07:36:09.973Z,958.7
2022-08-27T07:37:09.951Z,958.76
2022-08-27T07:38:10.187Z,958.73
2022-08-27T07:41:10.157Z,958.72
2022-08-27T07:42:10.022Z,958.76
2022-08-27T07:44:10.155Z,958.75
2022-08-27T07:45:09.970Z,958.7
2022-08-27T07:47:10.067Z,958.73
2022-08-27T07:48:10.151Z,958.69
2022-08-27T07:50:10.179Z,958.77
2022-08-27T07:51:10.979Z,958.74
2022-08-27T07:53:10.075Z,958.73
2022-08-27T07:54:10.140Z,958.72
2022-08-27T07:55:10.112Z,958.73
2022-08-27T07:57:10.734Z,958.75
2022-08-27T07:58:11.091Z,958.79
2022-08-27T08:02:10.138Z,958.78
2022-08-27T08:03:10.129Z,958.82
2022-08-27T08:04:10.132Z,958.84
2022-08-27T08:05:10.277Z,958.83
2022-08-27T08:06:10.027Z,958.86
2022-08-27T08:08:10.187Z,958.85
2022-08-27T08:09:10.617Z,958.86
2022-08-27T08:10:10.138Z,958.9
2022-08-27T08:12:10.043Z,958.89
2022-08-27T08:15:10.273Z,958.93
2022-08-27T08:16:10.145Z,958.92
2022-08-27T08:55:10.465Z,959
2022-08-27T08:56:10.264Z,959.01
2022-08-27T08:57:10.292Z,959.02
2022-08-27T08:58:10.436Z,959.04
2022-08-27T08:59:10.265Z,959.03
2022-08-27T09:03:10.389Z,959.05
2022-08-27T09:04:10.346Z,959.06
2022-08-27T09:05:10.159Z,959.07
2022-08-27T09:06:10.173Z,959.08
2022-08-27T09:07:10.312Z,959.1
2022-08-27T09:08:31.348Z,959.08
2022-08-27T09:09:10.248Z,959.13
2022-08-27T09:10:10.212Z,959.09
2022-08-27T09:11:10.180Z,959.1
2022-08-27T09:15:05.017Z,959.12
2022-08-27T09:16:05.762Z,959.11
2022-08-27T09:17:04.601Z,959.14
2022-08-27T09:18:04.712Z,959.13
2022-08-27T09:20:04.566Z,959.1
2022-08-27T09:21:04.958Z,959.08
2022-08-27T09:22:04.597Z,959.12
2022-08-27T09:23:04.573Z,959.08
2022-08-27T09:24:04.529Z,959.1
2022-08-27T09:25:05.799Z,959.14
2022-08-27T09:26:04.582Z,959.11
2022-08-27T09:27:04.628Z,959.14
2022-08-27T09:28:04.654Z,959.1
2022-08-27T09:29:04.569Z,959.09
2022-08-27T09:30:04.647Z,959.13
2022-08-27T09:31:04.504Z,959.16
2022-08-27T09:32:04.585Z,959.12
2022-08-27T09:33:04.560Z,959.16
2022-08-27T09:34:04.709Z,959.14
2022-08-27T09:35:04.591Z,959.16
2022-08-27T09:37:04.546Z,959.17
2022-08-27T09:38:04.604Z,959.12
2022-08-27T09:39:04.570Z,959.17
2022-08-27T09:40:04.679Z,959.16
2022-08-27T09:42:04.526Z,959.18
2022-08-27T09:43:04.639Z,959.19
2022-08-27T09:44:04.529Z,959.17
2022-08-27T09:45:04.559Z,959.14
2022-08-27T09:46:04.619Z,959.12
2022-08-27T09:49:04.635Z,959.13
2022-08-27T09:50:06.623Z,959.14
2022-08-27T09:51:04.559Z,959.12
2022-08-27T09:52:04.543Z,959.11
2022-08-27T09:54:04.575Z,959.1
2022-08-27T09:55:04.550Z,959.08
2022-08-27T09:56:05.981Z,959.07
2022-08-27T09:57:04.682Z,959.06
2022-08-27T09:58:04.745Z,959
2022-08-27T09:59:04.623Z,958.96
2022-08-27T10:00:04.576Z,958.95
2022-08-27T10:01:04.609Z,958.93
2022-08-27T10:02:04.646Z,958.92
2022-08-27T10:03:04.587Z,958.94
2022-08-27T10:04:04.690Z,958.92
2022-08-27T10:05:04.728Z,958.89
2022-08-27T10:06:04.696Z,958.88
2022-08-27T10:07:04.661Z,958.89
2022-08-27T10:08:04.748Z,958.9
2022-08-27T10:09:07.206Z,958.88
2022-08-27T10:10:05.080Z,958.9
2022-08-27T10:11:04.600Z,958.89
2022-08-27T10:13:09.204Z,958.87
2022-08-27T10:14:04.598Z,958.83
2022-08-27T10:15:04.610Z,958.85
2022-08-27T10:16:04.632Z,958.9
2022-08-27T10:17:04.746Z,958.89
2022-08-27T10:18:04.652Z,958.87
2022-08-27T10:19:04.688Z,958.88
2022-08-27T10:20:04.742Z,958.85
2022-08-27T10:21:05.850Z,958.82
2022-08-27T10:22:08.752Z,958.83
2022-08-27T10:24:04.714Z,958.84
2022-08-27T10:25:04.637Z,958.83
2022-08-27T10:26:04.759Z,958.85
2022-08-27T10:27:04.638Z,958.86
2022-08-27T10:28:04.860Z,958.88
2022-08-27T10:29:04.644Z,958.86
2022-08-27T10:31:04.646Z,958.83
2022-08-27T10:32:04.722Z,958.86
2022-08-27T10:33:04.652Z,958.84
2022-08-27T10:34:04.735Z,958.88
2022-08-27T10:35:04.903Z,958.89
2022-08-27T10:36:04.779Z,958.86
2022-08-27T10:37:07.316Z,958.85
2022-08-27T10:38:04.865Z,958.86
2022-08-27T10:39:04.741Z,958.89
2022-08-27T10:40:04.771Z,958.84
2022-08-27T10:41:04.671Z,958.87
2022-08-27T10:43:04.819Z,958.84
2022-08-27T10:44:04.780Z,958.8
2022-08-27T10:45:04.680Z,958.81
2022-08-27T10:46:04.831Z,958.83
2022-08-27T10:47:04.783Z,958.81
2022-08-27T10:48:04.794Z,958.83
2022-08-27T10:49:04.698Z,958.81
2022-08-27T10:50:04.698Z,958.82
2022-08-27T10:51:04.766Z,958.78
2022-08-27T10:52:08.190Z,958.79
2022-08-27T10:53:04.795Z,958.74
2022-08-27T10:54:04.775Z,958.73
2022-08-27T10:55:06.770Z,958.77
2022-08-27T10:56:04.708Z,958.79
2022-08-27T10:57:26.448Z,958.8
2022-08-27T10:58:04.717Z,958.81
2022-08-27T10:59:04.808Z,958.79
2022-08-27T11:00:04.778Z,958.74
2022-08-27T11:01:04.822Z,958.7
2022-08-27T11:02:04.840Z,958.66
2022-08-27T11:03:04.878Z,958.68
2022-08-27T11:04:04.846Z,958.7
2022-08-27T11:05:04.811Z,958.68
2022-08-27T11:06:04.735Z,958.75
2022-08-27T11:07:04.848Z,958.77
2022-08-27T11:08:04.757Z,958.79
2022-08-27T11:09:07.547Z,958.81
2022-08-27T11:10:05.075Z,958.82
2022-08-27T11:11:31.909Z,958.83
2022-08-27T11:13:04.860Z,958.84
2022-08-27T11:14:04.823Z,958.8
2022-08-27T11:15:04.760Z,958.81
2022-08-27T11:16:04.860Z,958.75
2022-08-27T11:17:04.937Z,958.73
2022-08-27T11:18:04.963Z,958.74
2022-08-27T11:19:04.871Z,958.68
2022-08-27T11:20:04.828Z,958.66
2022-08-27T11:21:04.788Z,958.63
2022-08-27T11:22:04.768Z,958.59
2022-08-27T11:23:04.937Z,958.57
2022-08-27T11:24:04.790Z,958.52
2022-08-27T11:25:04.873Z,958.54
2022-08-27T11:26:04.867Z,958.51
2022-08-27T11:28:04.831Z,958.49
2022-08-27T11:29:04.836Z,958.53
2022-08-27T11:31:04.992Z,958.54
2022-08-27T11:34:04.883Z,958.5
2022-08-27T11:35:04.867Z,958.49
2022-08-27T11:36:05.022Z,958.43
2022-08-27T11:37:04.886Z,958.48
2022-08-27T11:38:05.030Z,958.45
2022-08-27T11:39:04.828Z,958.49
2022-08-27T11:41:04.822Z,958.48
2022-08-27T11:42:04.926Z,958.47
2022-08-27T11:43:04.825Z,958.49
2022-08-27T11:44:04.831Z,958.48
2022-08-27T11:45:04.828Z,958.45
2022-08-27T11:46:04.892Z,958.48
2022-08-27T11:47:05.014Z,958.45
2022-08-27T11:49:04.935Z,958.44
2022-08-27T11:50:04.847Z,958.45
2022-08-27T11:52:04.907Z,958.41
2022-08-27T11:53:04.869Z,958.39
2022-08-27T11:54:04.945Z,958.4
2022-08-27T11:55:04.900Z,958.44
2022-08-27T11:56:04.982Z,958.39
2022-08-27T11:57:04.957Z,958.42
2022-08-27T11:58:05.078Z,958.4
2022-08-27T12:00:05.022Z,958.36
2022-08-27T12:01:05.111Z,958.39
2022-08-27T12:02:04.986Z,958.38
2022-08-27T12:03:04.937Z,958.37
2022-08-27T12:04:05.043Z,958.39
2022-08-27T12:05:05.000Z,958.4
2022-08-27T12:06:04.959Z,958.37
2022-08-27T12:07:05.029Z,958.32
2022-08-27T12:08:05.003Z,958.31
2022-08-27T12:09:04.896Z,958.3
2022-08-27T12:11:04.899Z,958.29
2022-08-27T12:12:04.897Z,958.26
2022-08-27T12:13:04.970Z,958.28
2022-08-27T12:14:05.008Z,958.29
2022-08-27T12:15:04.908Z,958.26
2022-08-27T12:16:04.933Z,958.29
2022-08-27T12:17:04.913Z,958.31
2022-08-27T12:18:04.936Z,958.29
2022-08-27T12:19:04.965Z,958.28
2022-08-27T12:20:04.948Z,958.26
2022-08-27T12:21:05.004Z,958.22
2022-08-27T12:22:04.945Z,958.26
2022-08-27T12:23:05.009Z,958.23
2022-08-27T12:25:05.060Z,958.24
2022-08-27T12:26:04.948Z,958.22
2022-08-27T12:27:04.952Z,958.12
2022-08-27T12:28:05.120Z,958.09
2022-08-27T12:29:04.951Z,958.05
2022-08-27T12:30:05.022Z,958.08
2022-08-27T12:31:05.226Z,958.12
2022-08-27T12:32:05.032Z,958.11
2022-08-27T12:33:04.999Z,958.07
2022-08-27T12:34:05.067Z,958.06
2022-08-27T12:35:05.050Z,957.99
2022-08-27T12:36:04.957Z,957.98
2022-08-27T12:37:05.211Z,958
2022-08-27T12:38:05.294Z,957.96
2022-08-27T12:39:05.126Z,957.97
2022-08-27T12:40:05.083Z,957.91
2022-08-27T12:41:04.977Z,957.9
2022-08-27T12:42:05.170Z,957.91
2022-08-27T12:44:05.056Z,957.92
2022-08-27T12:45:05.006Z,957.91
2022-08-27T12:46:05.120Z,957.94
2022-08-27T12:48:05.008Z,957.98
2022-08-27T12:49:15.771Z,957.96
2022-08-27T12:50:05.102Z,958.03
2022-08-27T12:51:05.030Z,958.02
2022-08-27T12:52:05.012Z,958
2022-08-27T12:53:05.155Z,957.97
2022-08-27T12:55:05.101Z,957.95
2022-08-27T12:56:05.063Z,957.97
2022-08-27T12:57:05.132Z,957.93
2022-08-27T13:00:05.138Z,957.91
2022-08-27T13:01:05.231Z,957.87
2022-08-27T13:03:05.143Z,957.83
2022-08-27T13:04:05.116Z,957.8
2022-08-27T13:05:05.076Z,957.72
2022-08-27T13:07:05.039Z,957.71
2022-08-27T13:08:05.171Z,957.78
2022-08-27T13:10:05.120Z,957.76
2022-08-27T13:11:05.080Z,957.75
2022-08-27T13:12:05.055Z,957.78
2022-08-27T13:13:05.126Z,957.76
2022-08-27T13:14:05.065Z,957.77
2022-08-27T13:15:05.158Z,957.75
2022-08-27T13:16:05.179Z,957.65
2022-08-27T13:18:05.198Z,957.67
2022-08-27T13:19:05.080Z,957.7
2022-08-27T13:21:05.077Z,957.67
2022-08-27T13:24:05.170Z,957.62
2022-08-27T13:25:05.141Z,957.68
2022-08-27T13:26:05.224Z,957.64
2022-08-27T13:27:05.184Z,957.57
2022-08-27T13:28:05.169Z,957.58
2022-08-27T13:30:05.103Z,957.6
2022-08-27T13:31:05.188Z,957.58
2022-08-27T13:32:05.134Z,957.56
2022-08-27T13:33:05.234Z,957.58
2022-08-27T13:34:06.249Z,957.59
2022-08-27T13:35:05.248Z,957.62
2022-08-27T13:36:05.203Z,957.66
2022-08-27T13:38:05.120Z,957.62
2022-08-27T13:39:05.149Z,957.57
2022-08-27T13:42:05.216Z,957.61
2022-08-27T13:43:05.148Z,957.63
2022-08-27T13:44:05.227Z,957.58
2022-08-27T13:46:05.154Z,957.6
2022-08-27T13:47:05.226Z,957.63
2022-08-27T13:48:05.208Z,957.64
2022-08-27T13:50:05.302Z,957.65
2022-08-27T13:52:05.276Z,957.68
2022-08-27T13:54:05.200Z,957.66
2022-08-27T13:55:05.283Z,957.64
2022-08-27T13:56:05.178Z,957.63
2022-08-27T13:57:05.213Z,957.61
2022-08-27T13:58:05.294Z,957.62
2022-08-27T13:59:05.184Z,957.59
2022-08-27T14:00:05.247Z,957.58
2022-08-27T14:01:05.296Z,957.52
2022-08-27T14:02:05.266Z,957.48
2022-08-27T14:03:05.240Z,957.46
2022-08-27T14:04:05.322Z,957.49
2022-08-27T14:07:05.293Z,957.52
2022-08-27T14:08:05.385Z,957.48
2022-08-27T14:11:05.231Z,957.49
2022-08-27T14:12:05.222Z,957.5
2022-08-27T14:13:05.305Z,957.57
2022-08-27T14:14:05.391Z,957.61
2022-08-27T14:15:05.234Z,957.62
2022-08-27T14:16:05.352Z,957.56
2022-08-27T14:17:05.225Z,957.53
2022-08-27T14:18:05.355Z,957.48
2022-08-27T14:19:05.246Z,957.49
2022-08-27T14:20:05.347Z,957.52
2022-08-27T14:21:05.365Z,957.55
2022-08-27T14:23:05.273Z,957.57
2022-08-27T14:24:05.351Z,957.58
2022-08-27T14:25:05.245Z,957.54
2022-08-27T14:26:05.411Z,957.53
2022-08-27T14:27:05.275Z,957.52
2022-08-27T14:28:05.330Z,957.53
2022-08-27T14:29:11.755Z,957.54
2022-08-27T14:31:05.286Z,957.52
2022-08-27T14:32:05.296Z,957.54
2022-08-27T14:33:05.271Z,957.51
2022-08-27T14:34:05.344Z,957.48
2022-08-27T14:35:05.292Z,957.49
2022-08-27T14:36:05.398Z,957.48
2022-08-27T14:37:05.331Z,957.49
2022-08-27T14:38:05.323Z,957.48
2022-08-27T14:40:05.458Z,957.49
2022-08-27T14:41:06.642Z,957.5
2022-08-27T14:42:05.427Z,957.51
2022-08-27T14:43:05.479Z,957.53
2022-08-27T14:44:05.422Z,957.55
2022-08-27T14:45:05.312Z,957.51
2022-08-27T14:46:06.890Z,957.53
2022-08-27T14:47:05.302Z,957.54
2022-08-27T14:48:05.305Z,957.53
2022-08-27T14:49:05.572Z,957.52
2022-08-27T14:50:05.311Z,957.49
2022-08-27T14:51:05.310Z,957.57
2022-08-27T14:52:05.349Z,957.55
2022-08-27T14:53:05.430Z,957.53
2022-08-27T14:55:08.856Z,957.52
2022-08-27T14:56:05.431Z,957.55
2022-08-27T14:57:05.329Z,957.54
2022-08-27T14:58:05.383Z,957.56
2022-08-27T15:00:05.401Z,957.57
2022-08-27T15:01:05.367Z,957.59
2022-08-27T15:02:05.528Z,957.6
2022-08-27T15:03:05.411Z,957.59
2022-08-27T15:05:12.126Z,957.58
2022-08-27T15:06:05.354Z,957.56
2022-08-27T15:07:05.358Z,957.53
2022-08-27T15:08:05.445Z,957.56
2022-08-27T15:09:05.405Z,957.54
2022-08-27T15:10:06.255Z,957.53
2022-08-27T15:11:05.370Z,957.58
2022-08-27T15:12:05.373Z,957.57
2022-08-27T15:13:05.482Z,957.53
2022-08-27T15:14:05.396Z,957.57
2022-08-27T15:15:05.374Z,957.56
2022-08-27T15:16:05.553Z,957.57
2022-08-27T15:17:10.958Z,957.59
2022-08-27T15:20:05.463Z,957.61
2022-08-27T15:21:05.430Z,957.62
2022-08-27T15:22:05.509Z,957.64
2022-08-27T15:23:05.413Z,957.65
2022-08-27T15:24:05.413Z,957.68
2022-08-27T15:25:05.513Z,957.7
2022-08-27T15:26:05.481Z,957.77
2022-08-27T15:27:05.531Z,957.84
2022-08-27T15:29:06.669Z,957.81
2022-08-27T15:30:05.541Z,957.84
2022-08-27T15:31:05.575Z,957.86
2022-08-27T15:32:05.579Z,957.84
2022-08-27T15:33:05.554Z,957.82
2022-08-27T15:34:05.511Z,957.83
2022-08-27T15:35:05.481Z,957.8
2022-08-27T15:36:05.439Z,957.85
2022-08-27T15:38:05.538Z,957.88
2022-08-27T15:39:05.450Z,957.86
2022-08-27T15:40:05.584Z,957.84
2022-08-27T15:41:05.439Z,957.83
2022-08-27T15:45:05.559Z,957.85
2022-08-27T15:46:05.642Z,957.87
2022-08-27T15:47:05.462Z,957.9
2022-08-27T15:50:05.534Z,957.93
2022-08-27T15:51:05.478Z,957.92
2022-08-27T15:52:05.638Z,957.93
2022-08-27T15:53:05.514Z,957.97
2022-08-27T15:54:05.574Z,957.94
2022-08-27T15:55:05.544Z,957.97
2022-08-27T15:56:05.516Z,958.01
2022-08-27T15:58:05.681Z,958
2022-08-27T15:59:05.615Z,958.02
2022-08-27T16:00:05.509Z,958.06
2022-08-27T16:01:05.498Z,958.05
2022-08-27T16:02:05.628Z,958.08
2022-08-27T16:03:05.585Z,958.06
2022-08-27T16:04:05.516Z,958.02
2022-08-27T16:05:05.623Z,958
2022-08-27T16:06:05.593Z,958.02
2022-08-27T16:07:05.555Z,958.08
2022-08-27T16:08:05.623Z,958.11
2022-08-27T16:09:05.515Z,958.09
2022-08-27T16:10:05.519Z,958.11
2022-08-27T16:11:05.541Z,958.13
2022-08-27T16:12:05.598Z,958.14
2022-08-27T16:13:05.668Z,958.12
2022-08-27T16:14:05.627Z,958.07
2022-08-27T16:15:05.626Z,958.05
2022-08-27T16:16:05.648Z,957.96
2022-08-27T16:17:05.547Z,958.01
2022-08-27T16:19:05.606Z,958.03
2022-08-27T16:20:05.636Z,958.04
2022-08-27T16:21:05.606Z,958.02
2022-08-27T16:22:05.549Z,958.05
2022-08-27T16:24:05.559Z,958.06
2022-08-27T16:25:05.605Z,958.05
2022-08-27T16:26:05.570Z,958.03
2022-08-27T16:27:05.620Z,958.04
2022-08-27T16:28:05.595Z,958.06
2022-08-27T16:30:06.688Z,957.98
2022-08-27T16:31:05.653Z,958.03
2022-08-27T16:33:05.625Z,958.06
2022-08-27T16:34:05.583Z,958.07
2022-08-27T16:35:05.670Z,958.06
2022-08-27T16:36:05.631Z,958.04
2022-08-27T16:37:05.713Z,958.05
2022-08-27T16:38:05.712Z,958
2022-08-27T16:39:05.619Z,957.99
2022-08-27T16:40:05.631Z,958.01
2022-08-27T16:41:05.645Z,957.97
2022-08-27T16:42:05.747Z,957.99
2022-08-27T16:43:05.709Z,958.07
2022-08-27T16:44:05.606Z,958
2022-08-27T16:45:05.604Z,958.03
2022-08-27T16:46:05.673Z,958.04
2022-08-27T16:47:05.625Z,957.98
2022-08-27T16:48:05.739Z,958.05
2022-08-27T16:49:05.724Z,958.01
2022-08-27T16:50:05.684Z,958
2022-08-27T16:51:05.944Z,957.99
2022-08-27T16:52:05.723Z,958
2022-08-27T16:53:05.691Z,957.99
2022-08-27T16:54:05.651Z,958.01
2022-08-27T16:56:05.693Z,957.99
2022-08-27T16:58:05.733Z,958.03
2022-08-27T17:01:05.796Z,958.04
2022-08-27T17:02:05.717Z,957.98
2022-08-27T17:03:05.765Z,957.97
2022-08-27T17:04:09.777Z,957.96
2022-08-27T17:05:32.947Z,957.99
2022-08-27T17:07:05.737Z,958.01
2022-08-27T17:08:05.973Z,958
2022-08-27T17:10:06.094Z,957.96
2022-08-27T17:11:05.672Z,957.99
2022-08-27T17:12:05.788Z,958.06
2022-08-27T17:13:05.682Z,958.03
2022-08-27T17:14:05.691Z,958.04
2022-08-27T17:15:05.779Z,958.06
2022-08-27T17:16:05.799Z,958.05
2022-08-27T17:17:05.723Z,958.08
2022-08-27T17:18:05.813Z,958.1
2022-08-27T17:20:05.763Z,958.09
2022-08-27T17:21:05.800Z,958.1
2022-08-27T17:22:05.708Z,958.09
2022-08-27T17:23:05.827Z,958.12
2022-08-27T17:24:10.879Z,958.09
2022-08-27T17:25:05.908Z,958.13
2022-08-27T17:26:05.711Z,958.11
2022-08-27T17:27:05.724Z,958.13